»·PEaware :: SWA261 KRNO-KLAS

SWA261 :: KRNO-KLAS

FLIGHT INFORMATION

Flight Status: Arrived
Operator:
Southwest Airlines
More flights by this operator :: More flights under this callsign
Pilot: Dave P. (45)
Aircraft: BOEING 737-700
(B737)
More flights by this aircraft type
Origin: KRNO Reno/Tahoe Intl
United States
Destination: KLAS McCarran Intl
United States
More flights between these airports :: More routes between these airports
Route: +ZEFFR6 PESKE LIDAT J92 BTY SUNST4
File this flight plan on PilotEdge
Remarks: RMK / SIMBRIEF
Altitude:
(Current/Filed)
33,000ft
Speed:
(Current/Filed)
451kts
Departed: 08-Feb-20 09:36 AM
Arrived: 08-Feb-20 10:34 AM
Distance/Time
Traveled:
300nm/0:58
Distance/Time
To Go:
Arrived

Flight Plot

Page will automatically refresh every two minutes.

Flight plan parsing failed; only flown route is shown


Map Options




Map Legend


Flown Route
Filed Route
Departure Airport
Arrival Airport
Navaid (VOR, NDB)
Fix

Horizontal Profiles

Position Reports

Time Latitude Longitude Heading Altitude Ground
Speed
08-Feb-20 08:57 39.505195 -119.772242 245 4423ft 0kts
08-Feb-20 08:58 39.505195 -119.772242 245 4423ft 0kts
08-Feb-20 08:59 39.505195 -119.772242 245 4423ft 0kts
08-Feb-20 09:00 39.505195 -119.772242 245 4423ft 0kts
08-Feb-20 09:01 39.505195 -119.772242 245 4423ft 0kts
08-Feb-20 09:02 39.505195 -119.772242 245 4423ft 0kts
08-Feb-20 09:03 39.505195 -119.772242 245 4423ft 0kts
08-Feb-20 09:04 39.505195 -119.772242 245 4423ft 0kts
08-Feb-20 09:05 39.505195 -119.772242 245 4423ft 0kts
08-Feb-20 09:06 39.505195 -119.772242 245 4423ft 0kts
08-Feb-20 09:07 39.505195 -119.772242 245 4423ft 0kts
08-Feb-20 09:08 39.505195 -119.772242 245 4423ft 0kts
08-Feb-20 09:09 39.505195 -119.772242 245 4423ft 0kts
08-Feb-20 09:10 39.505195 -119.772242 245 4423ft 0kts
08-Feb-20 09:11 39.505195 -119.772242 245 4423ft 0kts
08-Feb-20 09:12 39.505195 -119.772242 245 4423ft 0kts
08-Feb-20 09:13 39.505195 -119.772242 245 4423ft 0kts
08-Feb-20 09:14 39.505195 -119.772242 245 4423ft 0kts
08-Feb-20 09:15 39.505195 -119.772242 245 4423ft 0kts
08-Feb-20 09:16 39.505195 -119.772242 245 4423ft 0kts
08-Feb-20 09:17 39.505195 -119.772242 245 4423ft 0kts
08-Feb-20 09:18 39.505195 -119.772242 245 4423ft 0kts
08-Feb-20 09:19 39.505195 -119.772242 245 4423ft 0kts
08-Feb-20 09:20 39.505195 -119.772242 245 4423ft 0kts
08-Feb-20 09:21 39.505195 -119.772242 245 4423ft 0kts
08-Feb-20 09:22 39.505195 -119.772242 245 4423ft 0kts
08-Feb-20 09:23 39.505195 -119.772242 245 4423ft 0kts
08-Feb-20 09:24 39.505195 -119.772242 245 4423ft 0kts
08-Feb-20 09:25 39.505195 -119.772242 245 4423ft 0kts
08-Feb-20 09:26 39.505195 -119.772242 245 4423ft 0kts
08-Feb-20 09:27 39.505195 -119.772242 245 4423ft 0kts
08-Feb-20 09:28 39.505291 -119.771381 323 4423ft 1kts
08-Feb-20 09:29 39.505164 -119.771314 348 4423ft 0kts
08-Feb-20 09:30 39.505165 -119.771314 348 4423ft 0kts
08-Feb-20 09:31 39.507092 -119.771486 0 4423ft 19kts
08-Feb-20 09:32 39.512524 -119.771488 0 4423ft 17kts
08-Feb-20 09:33 39.513828 -119.770374 97 4423ft 0kts
08-Feb-20 09:34 39.513286 -119.769222 179 4423ft 9kts
08-Feb-20 09:35 39.493486 -119.769281 180 4447ft 166kts
08-Feb-20 09:36 39.443433 -119.769019 181 6377ft 210kts
08-Feb-20 09:37 39.373976 -119.769552 181 8345ft 278kts
08-Feb-20 09:38 39.297904 -119.739190 136 10977ft 338kts
08-Feb-20 09:39 39.228987 -119.638421 134 13036ft 395kts
08-Feb-20 09:40 39.153760 -119.530407 134 16338ft 414kts
08-Feb-20 09:41 39.069010 -119.425006 139 18949ft 432kts
08-Feb-20 09:42 38.982309 -119.317564 138 19097ft 431kts
08-Feb-20 09:43 38.894736 -119.209277 139 21407ft 445kts
08-Feb-20 09:44 38.803703 -119.097522 139 23841ft 462kts
08-Feb-20 09:45 38.711778 -118.977510 135 25997ft 478kts
08-Feb-20 09:46 38.619784 -118.852155 136 27856ft 490kts
08-Feb-20 09:47 38.524954 -118.723997 136 29526ft 501kts
08-Feb-20 09:48 38.428679 -118.593428 136 31151ft 505kts
08-Feb-20 09:49 38.332605 -118.464376 137 32924ft 502kts
08-Feb-20 09:50 38.235972 -118.335199 137 33122ft 500kts
08-Feb-20 09:51 38.139976 -118.207403 137 33129ft 499kts
08-Feb-20 09:52 38.043994 -118.080137 137 33101ft 499kts
08-Feb-20 09:53 37.947752 -117.953039 137 33103ft 499kts
08-Feb-20 09:54 37.851478 -117.826407 138 33105ft 499kts
08-Feb-20 09:55 37.755266 -117.700356 138 33106ft 498kts
08-Feb-20 09:56 37.659189 -117.574974 138 33107ft 497kts
08-Feb-20 09:57 37.562864 -117.449362 138 33117ft 496kts
08-Feb-20 09:58 37.466607 -117.325052 138 33116ft 495kts
08-Feb-20 09:59 37.360615 -117.218155 151 33113ft 486kts
08-Feb-20 10:00 37.248346 -117.124047 151 33099ft 485kts
08-Feb-20 10:01 37.136362 -117.029656 150 33090ft 484kts
08-Feb-20 10:02 37.024486 -116.934834 151 33085ft 484kts
08-Feb-20 10:03 36.913024 -116.841464 151 33081ft 483kts
08-Feb-20 10:04 36.802819 -116.745475 144 32695ft 485kts
08-Feb-20 10:05 36.710736 -116.620580 133 29652ft 488kts
08-Feb-20 10:06 36.623363 -116.494773 133 27128ft 470kts
08-Feb-20 10:08 36.538728 -116.375025 134 24681ft 453kts
08-Feb-20 10:09 36.456801 -116.259507 133 22287ft 437kts
08-Feb-20 10:10 36.377729 -116.147878 133 19946ft 422kts
08-Feb-20 10:11 36.301304 -116.040810 133 17643ft 408kts
08-Feb-20 10:12 36.227716 -115.938148 133 16079ft 382kts
08-Feb-20 10:13 36.177925 -115.831289 111 15349ft 347kts
08-Feb-20 10:14 36.143415 -115.722134 112 14303ft 336kts
08-Feb-20 10:15 36.109035 -115.615404 112 13288ft 331kts
08-Feb-20 10:16 36.075152 -115.510654 113 12290ft 325kts
08-Feb-20 10:17 36.041717 -115.408052 113 11311ft 311kts
08-Feb-20 10:18 36.025967 -115.307590 94 10230ft 292kts
08-Feb-20 10:19 36.019128 -115.210531 96 9092ft 274kts
08-Feb-20 10:20 36.013433 -115.126872 96 8624ft 214kts
08-Feb-20 10:21 36.008835 -115.055686 95 8006ft 206kts
08-Feb-20 10:22 36.004649 -114.983902 95 8004ft 210kts
08-Feb-20 10:23 36.000264 -114.911971 95 8007ft 210kts
08-Feb-20 10:24 35.995844 -114.839794 95 8009ft 211kts
08-Feb-20 10:25 35.991271 -114.767714 95 8009ft 211kts
08-Feb-20 10:26 36.027286 -114.734312 325 7014ft 202kts
08-Feb-20 10:26 36.049226 -114.783793 292 5718ft 197kts
08-Feb-20 10:28 36.074087 -114.855289 286 4990ft 194kts
08-Feb-20 10:29 36.074020 -114.921449 268 4998ft 193kts
08-Feb-20 10:29 36.073806 -114.977548 268 4507ft 197kts
08-Feb-20 10:30 36.073743 -115.042810 268 3499ft 175kts
08-Feb-20 10:32 36.073687 -115.107632 270 2488ft 145kts
08-Feb-20 10:32 36.073676 -115.140009 269 2189ft 56kts
08-Feb-20 10:33 36.075001 -115.146384 325 2189ft 12kts
08-Feb-20 10:35 36.079230 -115.146916 28 2189ft 10kts
08-Feb-20 10:35 36.079558 -115.146711 26 2189ft 0kts
08-Feb-20 10:36 36.079558 -115.146711 26 2189ft 0kts
08-Feb-20 10:37 36.079558 -115.146711 26 2189ft 0kts
08-Feb-20 10:38 36.079558 -115.146711 26 2189ft 0kts
08-Feb-20 10:39 36.079558 -115.146711 26 2189ft 0kts
08-Feb-20 10:40 36.079558 -115.146711 26 2189ft 0kts

Navigation Log

Ident Type
Flight plan parsing failed, navigation log unavailable